sensor_id;sensor_type;location;lat;lon;timestamp;P1;durP1;ratioP1;P2;durP2;ratioP2
27869;SDS011;15225;50.730;4.244;2023-04-06T18:40:45;32.92;;;11.15;;
27869;SDS011;15225;50.730;4.244;2023-04-06T18:43:10;42.97;;;14.90;;
27869;SDS011;15225;50.730;4.244;2023-04-06T18:45:36;33.90;;;12.68;;
27869;SDS011;15225;50.730;4.244;2023-04-06T18:48:03;42.95;;;18.65;;
27869;SDS011;15225;50.730;4.244;2023-04-06T18:50:28;30.95;;;11.00;;
27869;SDS011;15225;50.730;4.244;2023-04-06T18:52:54;35.97;;;9.35;;
27869;SDS011;15225;50.730;4.244;2023-04-06T18:55:20;32.22;;;9.25;;
27869;SDS011;15225;50.730;4.244;2023-04-06T18:57:46;22.83;;;9.88;;
27869;SDS011;15225;50.730;4.244;2023-04-06T19:00:13;33.80;;;10.10;;
27869;SDS011;15225;50.730;4.244;2023-04-06T19:02:40;32.80;;;8.85;;
27869;SDS011;15225;50.730;4.244;2023-04-06T19:05:07;36.92;;;9.00;;
27869;SDS011;15225;50.730;4.244;2023-04-06T19:07:34;33.05;;;9.45;;
27869;SDS011;15225;50.730;4.244;2023-04-06T19:10:01;31.65;;;9.50;;
27869;SDS011;15225;50.730;4.244;2023-04-06T19:12:28;38.75;;;12.48;;
27869;SDS011;15225;50.730;4.244;2023-04-06T19:14:53;40.95;;;14.23;;
27869;SDS011;15225;50.730;4.244;2023-04-06T19:17:19;32.05;;;12.45;;
27869;SDS011;15225;50.730;4.244;2023-04-06T19:19:45;38.17;;;9.25;;
27869;SDS011;15225;50.730;4.244;2023-04-06T19:22:11;23.15;;;8.70;;
27869;SDS011;15225;50.730;4.244;2023-04-06T19:24:40;25.75;;;8.73;;
27869;SDS011;15225;50.730;4.244;2023-04-06T19:27:07;26.30;;;9.13;;
27869;SDS011;15225;50.730;4.244;2023-04-06T19:29:33;27.90;;;8.02;;
27869;SDS011;15225;50.730;4.244;2023-04-06T19:32:00;32.95;;;7.63;;
27869;SDS011;15225;50.730;4.244;2023-04-06T19:34:26;24.23;;;7.60;;
27869;SDS011;15225;50.730;4.244;2023-04-06T19:36:52;29.67;;;7.00;;
27869;SDS011;15225;50.730;4.244;2023-04-06T19:39:18;31.30;;;8.15;;
27869;SDS011;15225;50.730;4.244;2023-04-06T19:41:44;36.90;;;7.45;;
27869;SDS011;15225;50.730;4.244;2023-04-06T19:44:10;30.27;;;7.90;;
27869;SDS011;15225;50.730;4.244;2023-04-06T19:46:36;29.05;;;7.10;;
27869;SDS011;15225;50.730;4.244;2023-04-06T19:49:02;33.13;;;7.25;;
27869;SDS011;15225;50.730;4.244;2023-04-06T19:51:31;32.72;;;7.13;;
27869;SDS011;15225;50.730;4.244;2023-04-06T19:53:58;25.67;;;7.18;;
27869;SDS011;15225;50.730;4.244;2023-04-06T19:56:24;33.08;;;7.38;;
27869;SDS011;15225;50.730;4.244;2023-04-06T19:58:50;43.67;;;9.65;;
27869;SDS011;15225;50.730;4.244;2023-04-06T20:01:16;34.30;;;7.20;;
27869;SDS011;15225;50.730;4.244;2023-04-06T20:03:41;33.28;;;7.57;;
27869;SDS011;15225;50.730;4.244;2023-04-06T20:06:07;30.83;;;6.82;;
27869;SDS011;15225;50.730;4.244;2023-04-06T20:08:33;35.58;;;6.47;;
27869;SDS011;15225;50.730;4.244;2023-04-06T20:11:05;27.83;;;6.43;;
27869;SDS011;15225;50.730;4.244;2023-04-06T20:13:34;25.52;;;5.47;;
27869;SDS011;15225;50.730;4.244;2023-04-06T20:16:01;23.30;;;5.75;;
